createdAt,value
2023-04-16T09:04:41.916Z,400
2023-04-16T09:09:48.662Z,761
2023-04-16T09:14:55.370Z,798
2023-04-16T09:20:01.756Z,822
2023-04-16T09:25:08.142Z,832
2023-04-16T09:30:14.859Z,833
2023-04-16T09:35:21.187Z,833
2023-04-16T09:40:27.855Z,829
2023-04-16T09:45:34.233Z,830
2023-04-16T09:50:40.937Z,824
2023-04-16T09:55:47.274Z,840
2023-04-16T10:00:53.932Z,836
2023-04-16T10:06:00.317Z,871
2023-04-16T10:11:06.969Z,899
2023-04-16T10:16:13.400Z,920
2023-04-16T10:21:20.020Z,933
2023-04-16T10:26:26.382Z,927
2023-04-16T10:31:33.059Z,941
2023-04-16T10:36:39.450Z,941
2023-04-16T10:41:46.193Z,930
2023-04-16T10:46:52.509Z,932
2023-04-16T10:51:59.263Z,915
2023-04-16T10:57:05.633Z,909
2023-04-16T11:02:12.217Z,904
2023-04-16T11:07:18.577Z,923
2023-04-16T11:12:25.264Z,917
2023-04-16T11:17:31.601Z,914
2023-04-16T11:22:38.295Z,915
2023-04-16T11:27:44.655Z,911
2023-04-16T11:32:51.333Z,908
2023-04-16T11:37:57.710Z,907
2023-04-16T11:43:04.411Z,906
2023-04-16T11:48:10.749Z,906
2023-04-16T11:53:17.444Z,906
2023-04-16T11:58:23.821Z,904
2023-04-16T12:03:30.529Z,899
2023-04-16T12:08:36.872Z,898
2023-04-16T12:13:43.670Z,910
2023-04-16T12:18:49.904Z,923
2023-04-16T12:23:56.560Z,926
2023-04-16T12:29:02.935Z,937
2023-04-16T12:34:09.601Z,951
2023-04-16T12:39:15.986Z,951
2023-04-16T12:44:22.665Z,946
2023-04-16T12:49:29.053Z,945
2023-04-16T12:54:35.716Z,947
2023-04-16T12:59:42.069Z,926
2023-04-16T13:04:48.733Z,881
2023-04-16T13:09:55.110Z,864
2023-04-16T13:15:01.803Z,856
2023-04-16T13:20:08.527Z,870
2023-04-16T13:25:13.820Z,904
2023-04-16T13:30:19.258Z,894
2023-04-16T13:35:25.682Z,902
2023-04-16T13:40:32.254Z,930
2023-04-16T13:45:38.721Z,926
2023-04-16T13:50:45.306Z,922
2023-04-16T13:55:51.701Z,919
2023-04-16T14:00:58.330Z,917
2023-04-16T14:06:04.700Z,914
2023-04-16T14:11:11.364Z,912
2023-04-16T14:16:17.740Z,924
2023-04-16T14:21:24.420Z,918
2023-04-16T14:26:30.794Z,914
2023-04-16T14:31:37.496Z,911
2023-04-16T14:36:43.833Z,905
2023-04-16T14:41:50.478Z,905
2023-04-16T14:46:56.870Z,909
2023-04-16T14:57:09.936Z,904
2023-04-16T15:02:16.591Z,918
2023-04-16T15:07:22.938Z,945
2023-04-16T15:12:29.613Z,951
2023-04-16T15:17:36.009Z,947
2023-04-16T15:22:42.677Z,944
2023-04-16T15:27:49.064Z,940
2023-04-16T15:32:55.704Z,936
2023-04-16T15:38:02.068Z,934
2023-04-16T15:43:08.729Z,932
2023-04-16T15:48:15.102Z,926
2023-04-16T15:53:21.775Z,925
2023-04-16T15:58:28.148Z,921
2023-04-16T16:03:34.822Z,930
2023-04-16T16:08:41.185Z,936
2023-04-16T16:13:47.853Z,944
2023-04-16T16:18:54.221Z,934
2023-04-16T16:24:00.945Z,930
2023-04-16T16:29:07.367Z,926
2023-04-16T16:34:13.934Z,922
2023-04-16T16:39:20.388Z,918
2023-04-16T16:44:27.066Z,915
2023-04-16T16:49:33.509Z,913
2023-04-16T16:54:40.174Z,909
2023-04-16T16:59:46.613Z,902
2023-04-16T17:04:53.287Z,899
2023-04-16T17:09:59.758Z,897
2023-04-16T17:15:06.468Z,891
2023-04-16T17:20:12.846Z,892
2023-04-16T17:25:19.523Z,897
2023-04-16T17:30:25.996Z,905
2023-04-16T17:35:32.630Z,916
2023-04-16T17:40:39.098Z,922
2023-04-16T17:45:45.890Z,926
2023-04-16T17:50:51.409Z,929
2023-04-16T17:55:56.829Z,930
2023-04-16T18:01:03.457Z,931
2023-04-16T18:06:09.825Z,932
2023-04-16T18:11:16.498Z,934
2023-04-16T18:16:22.884Z,933
2023-04-16T18:21:29.531Z,931
2023-04-16T18:26:35.910Z,931
2023-04-16T18:31:42.583Z,931
2023-04-16T18:36:48.941Z,930
2023-04-16T18:41:55.608Z,927
2023-04-16T18:47:02.058Z,928
